sensor_id;sensor_type;location;lat;lon;timestamp;P1;durP1;ratioP1;P2;durP2;ratioP2
17441;SDS011;8838;50.144;8.176;2023-11-21T00:00:41;1.38;;;1.10;;
17441;SDS011;8838;50.144;8.176;2023-11-21T00:03:08;2.17;;;1.10;;
17441;SDS011;8838;50.144;8.176;2023-11-21T00:05:36;5.93;;;0.97;;
17441;SDS011;8838;50.144;8.176;2023-11-21T00:08:03;1.33;;;0.95;;
17441;SDS011;8838;50.144;8.176;2023-11-21T00:10:30;2.72;;;1.13;;
17441;SDS011;8838;50.144;8.176;2023-11-21T00:12:57;2.13;;;1.00;;
17441;SDS011;8838;50.144;8.176;2023-11-21T00:15:24;1.33;;;1.10;;
17441;SDS011;8838;50.144;8.176;2023-11-21T00:17:52;1.20;;;1.10;;
17441;SDS011;8838;50.144;8.176;2023-11-21T00:20:20;3.23;;;1.10;;
17441;SDS011;8838;50.144;8.176;2023-11-21T00:22:47;1.55;;;0.88;;
17441;SDS011;8838;50.144;8.176;2023-11-21T00:25:14;0.80;;;0.80;;
17441;SDS011;8838;50.144;8.176;2023-11-21T00:27:42;2.33;;;0.80;;
17441;SDS011;8838;50.144;8.176;2023-11-21T00:30:09;0.88;;;0.80;;
17441;SDS011;8838;50.144;8.176;2023-11-21T00:32:37;1.00;;;0.90;;
17441;SDS011;8838;50.144;8.176;2023-11-21T00:35:06;1.10;;;1.00;;
17441;SDS011;8838;50.144;8.176;2023-11-21T00:37:33;1.55;;;1.08;;
17441;SDS011;8838;50.144;8.176;2023-11-21T00:40:00;2.90;;;1.20;;
17441;SDS011;8838;50.144;8.176;2023-11-21T00:42:30;1.40;;;1.30;;
17441;SDS011;8838;50.144;8.176;2023-11-21T00:44:57;1.35;;;1.25;;
17441;SDS011;8838;50.144;8.176;2023-11-21T00:47:23;3.17;;;1.40;;
17441;SDS011;8838;50.144;8.176;2023-11-21T00:49:50;1.40;;;1.30;;
17441;SDS011;8838;50.144;8.176;2023-11-21T00:52:19;1.10;;;1.10;;
17441;SDS011;8838;50.144;8.176;2023-11-21T00:54:46;2.10;;;1.33;;
17441;SDS011;8838;50.144;8.176;2023-11-21T00:57:13;1.80;;;1.42;;
17441;SDS011;8838;50.144;8.176;2023-11-21T00:59:39;4.73;;;1.60;;
17441;SDS011;8838;50.144;8.176;2023-11-21T01:02:06;1.40;;;1.30;;
17441;SDS011;8838;50.144;8.176;2023-11-21T01:04:35;1.20;;;1.10;;
17441;SDS011;8838;50.144;8.176;2023-11-21T01:07:02;2.33;;;1.27;;
17441;SDS011;8838;50.144;8.176;2023-11-21T01:09:31;1.97;;;1.17;;
17441;SDS011;8838;50.144;8.176;2023-11-21T01:11:58;1.55;;;1.40;;
17441;SDS011;8838;50.144;8.176;2023-11-21T01:14:25;3.15;;;1.48;;
17441;SDS011;8838;50.144;8.176;2023-11-21T01:16:53;1.67;;;1.40;;
17441;SDS011;8838;50.144;8.176;2023-11-21T01:19:19;2.22;;;1.70;;
17441;SDS011;8838;50.144;8.176;2023-11-21T01:21:46;3.03;;;2.00;;
17441;SDS011;8838;50.144;8.176;2023-11-21T01:24:13;2.70;;;2.00;;
17441;SDS011;8838;50.144;8.176;2023-11-21T01:26:41;4.70;;;2.20;;
17441;SDS011;8838;50.144;8.176;2023-11-21T01:29:08;2.80;;;2.10;;
17441;SDS011;8838;50.144;8.176;2023-11-21T01:31:35;2.70;;;1.70;;
17441;SDS011;8838;50.144;8.176;2023-11-21T01:34:02;3.63;;;1.95;;
17441;SDS011;8838;50.144;8.176;2023-11-21T01:36:30;4.65;;;2.00;;
17441;SDS011;8838;50.144;8.176;2023-11-21T01:38:58;1.55;;;1.45;;
17441;SDS011;8838;50.144;8.176;2023-11-21T01:41:25;3.13;;;1.70;;
17441;SDS011;8838;50.144;8.176;2023-11-21T01:43:54;2.08;;;1.40;;
17441;SDS011;8838;50.144;8.176;2023-11-21T01:46:21;2.20;;;2.00;;
17441;SDS011;8838;50.144;8.176;2023-11-21T01:48:49;5.25;;;2.63;;
17441;SDS011;8838;50.144;8.176;2023-11-21T01:51:16;2.60;;;2.30;;
17441;SDS011;8838;50.144;8.176;2023-11-21T01:53:44;2.28;;;2.08;;
17441;SDS011;8838;50.144;8.176;2023-11-21T01:56:11;1.67;;;1.57;;
17441;SDS011;8838;50.144;8.176;2023-11-21T01:58:39;1.60;;;1.38;;
17441;SDS011;8838;50.144;8.176;2023-11-21T02:01:07;2.07;;;1.50;;
17441;SDS011;8838;50.144;8.176;2023-11-21T02:03:35;1.50;;;1.40;;
17441;SDS011;8838;50.144;8.176;2023-11-21T02:06:02;1.48;;;1.38;;
17441;SDS011;8838;50.144;8.176;2023-11-21T02:08:29;1.20;;;1.10;;
17441;SDS011;8838;50.144;8.176;2023-11-21T02:10:56;0.90;;;0.90;;
17441;SDS011;8838;50.144;8.176;2023-11-21T02:13:23;1.10;;;1.00;;
17441;SDS011;8838;50.144;8.176;2023-11-21T02:15:50;1.08;;;0.95;;
17441;SDS011;8838;50.144;8.176;2023-11-21T02:18:20;2.23;;;1.00;;
17441;SDS011;8838;50.144;8.176;2023-11-21T02:20:47;1.27;;;0.93;;
17441;SDS011;8838;50.144;8.176;2023-11-21T02:23:15;0.88;;;0.88;;
17441;SDS011;8838;50.144;8.176;2023-11-21T02:25:43;1.07;;;0.80;;
17441;SDS011;8838;50.144;8.176;2023-11-21T02:28:09;1.40;;;1.30;;
17441;SDS011;8838;50.144;8.176;2023-11-21T02:30:37;1.47;;;1.20;;
17441;SDS011;8838;50.144;8.176;2023-11-21T02:33:04;3.30;;;2.10;;
17441;SDS011;8838;50.144;8.176;2023-11-21T02:35:32;2.23;;;1.40;;
17441;SDS011;8838;50.144;8.176;2023-11-21T02:38:00;1.83;;;1.60;;
17441;SDS011;8838;50.144;8.176;2023-11-21T02:40:28;1.60;;;1.50;;
17441;SDS011;8838;50.144;8.176;2023-11-21T02:42:55;1.92;;;1.75;;
17441;SDS011;8838;50.144;8.176;2023-11-21T02:45:24;2.57;;;1.90;;
17441;SDS011;8838;50.144;8.176;2023-11-21T02:47:51;4.38;;;1.92;;
17441;SDS011;8838;50.144;8.176;2023-11-21T02:50:21;2.87;;;2.43;;
17441;SDS011;8838;50.144;8.176;2023-11-21T02:52:48;2.90;;;1.90;;
17441;SDS011;8838;50.144;8.176;2023-11-21T02:55:16;2.60;;;2.10;;
17441;SDS011;8838;50.144;8.176;2023-11-21T02:57:44;3.50;;;2.40;;
17441;SDS011;8838;50.144;8.176;2023-11-21T03:00:11;2.97;;;2.67;;
17441;SDS011;8838;50.144;8.176;2023-11-21T03:02:39;4.70;;;2.80;;
17441;SDS011;8838;50.144;8.176;2023-11-21T03:05:07;4.07;;;3.00;;
17441;SDS011;8838;50.144;8.176;2023-11-21T03:07:35;3.50;;;3.20;;
17441;SDS011;8838;50.144;8.176;2023-11-21T03:10:02;3.53;;;3.17;;
17441;SDS011;8838;50.144;8.176;2023-11-21T03:12:30;3.80;;;3.40;;
17441;SDS011;8838;50.144;8.176;2023-11-21T03:14:58;4.13;;;3.37;;
17441;SDS011;8838;50.144;8.176;2023-11-21T03:17:26;3.63;;;3.10;;
17441;SDS011;8838;50.144;8.176;2023-11-21T03:19:54;2.60;;;2.40;;
17441;SDS011;8838;50.144;8.176;2023-11-21T03:22:22;4.57;;;2.70;;
17441;SDS011;8838;50.144;8.176;2023-11-21T03:24:49;3.10;;;2.80;;
17441;SDS011;8838;50.144;8.176;2023-11-21T03:27:15;4.10;;;2.77;;
17441;SDS011;8838;50.144;8.176;2023-11-21T03:29:42;7.17;;;3.23;;
17441;SDS011;8838;50.144;8.176;2023-11-21T03:32:11;4.27;;;3.50;;
17441;SDS011;8838;50.144;8.176;2023-11-21T03:34:52;5.00;;;3.70;;
17441;SDS011;8838;50.144;8.176;2023-11-21T03:37:20;6.83;;;4.50;;
17441;SDS011;8838;50.144;8.176;2023-11-21T03:39:47;7.67;;;4.27;;
17441;SDS011;8838;50.144;8.176;2023-11-21T03:42:13;7.77;;;5.23;;
17441;SDS011;8838;50.144;8.176;2023-11-21T03:44:40;5.97;;;4.57;;
17441;SDS011;8838;50.144;8.176;2023-11-21T03:47:07;6.87;;;5.33;;
17441;SDS011;8838;50.144;8.176;2023-11-21T03:49:35;7.50;;;5.60;;
17441;SDS011;8838;50.144;8.176;2023-11-21T03:52:02;9.37;;;5.73;;
17441;SDS011;8838;50.144;8.176;2023-11-21T03:54:29;11.77;;;6.30;;
17441;SDS011;8838;50.144;8.176;2023-11-21T03:56:55;11.33;;;6.83;;
17441;SDS011;8838;50.144;8.176;2023-11-21T03:59:22;10.83;;;7.17;;
17441;SDS011;8838;50.144;8.176;2023-11-21T04:01:49;10.93;;;7.90;;
17441;SDS011;8838;50.144;8.176;2023-11-21T04:04:16;13.57;;;8.57;;
17441;SDS011;8838;50.144;8.176;2023-11-21T04:06:44;15.03;;;8.33;;
17441;SDS011;8838;50.144;8.176;2023-11-21T04:09:10;15.97;;;8.90;;
17441;SDS011;8838;50.144;8.176;2023-11-21T04:11:37;16.97;;;9.53;;
17441;SDS011;8838;50.144;8.176;2023-11-21T04:14:04;11.83;;;8.70;;
17441;SDS011;8838;50.144;8.176;2023-11-21T04:16:31;14.00;;;8.83;;
17441;SDS011;8838;50.144;8.176;2023-11-21T04:18:58;14.73;;;8.63;;
17441;SDS011;8838;50.144;8.176;2023-11-21T04:21:25;14.97;;;9.13;;
17441;SDS011;8838;50.144;8.176;2023-11-21T04:23:53;13.80;;;8.13;;
17441;SDS011;8838;50.144;8.176;2023-11-21T04:26:20;15.33;;;7.77;;
17441;SDS011;8838;50.144;8.176;2023-11-21T04:28:47;12.17;;;7.53;;
17441;SDS011;8838;50.144;8.176;2023-11-21T04:31:13;11.57;;;7.90;;
17441;SDS011;8838;50.144;8.176;2023-11-21T04:33:40;10.90;;;7.53;;
17441;SDS011;8838;50.144;8.176;2023-11-21T04:36:07;10.87;;;8.07;;
17441;SDS011;8838;50.144;8.176;2023-11-21T04:38:34;14.87;;;8.73;;
17441;SDS011;8838;50.144;8.176;2023-11-21T04:41:02;13.53;;;8.60;;
17441;SDS011;8838;50.144;8.176;2023-11-21T04:43:29;15.97;;;10.17;;
17441;SDS011;8838;50.144;8.176;2023-11-21T04:45:56;16.67;;;10.60;;
17441;SDS011;8838;50.144;8.176;2023-11-21T04:48:23;17.00;;;10.63;;
17441;SDS011;8838;50.144;8.176;2023-11-21T04:50:50;22.27;;;10.40;;
17441;SDS011;8838;50.144;8.176;2023-11-21T04:53:17;18.13;;;10.93;;
17441;SDS011;8838;50.144;8.176;2023-11-21T04:55:44;19.60;;;9.97;;
17441;SDS011;8838;50.144;8.176;2023-11-21T04:58:12;17.07;;;9.90;;
17441;SDS011;8838;50.144;8.176;2023-11-21T05:00:39;13.97;;;9.63;;
17441;SDS011;8838;50.144;8.176;2023-11-21T05:03:06;15.47;;;9.13;;
17441;SDS011;8838;50.144;8.176;2023-11-21T05:05:33;13.93;;;8.90;;
17441;SDS011;8838;50.144;8.176;2023-11-21T05:07:59;12.73;;;7.70;;
17441;SDS011;8838;50.144;8.176;2023-11-21T05:10:27;12.80;;;7.67;;
17441;SDS011;8838;50.144;8.176;2023-11-21T05:12:54;11.13;;;7.43;;
17441;SDS011;8838;50.144;8.176;2023-11-21T05:15:22;8.57;;;4.93;;
17441;SDS011;8838;50.144;8.176;2023-11-21T05:17:50;8.37;;;5.30;;
17441;SDS011;8838;50.144;8.176;2023-11-21T05:20:17;8.23;;;5.63;;
17441;SDS011;8838;50.144;8.176;2023-11-21T05:22:46;7.00;;;4.80;;
17441;SDS011;8838;50.144;8.176;2023-11-21T05:25:13;7.60;;;5.03;;
17441;SDS011;8838;50.144;8.176;2023-11-21T05:27:40;8.27;;;5.57;;
17441;SDS011;8838;50.144;8.176;2023-11-21T05:30:07;8.57;;;6.13;;
17441;SDS011;8838;50.144;8.176;2023-11-21T05:32:38;10.67;;;5.90;;
17441;SDS011;8838;50.144;8.176;2023-11-21T05:35:05;9.03;;;6.43;;
17441;SDS011;8838;50.144;8.176;2023-11-21T05:37:34;11.03;;;6.40;;
17441;SDS011;8838;50.144;8.176;2023-11-21T05:40:04;11.63;;;6.23;;
17441;SDS011;8838;50.144;8.176;2023-11-21T05:42:31;11.40;;;6.67;;
17441;SDS011;8838;50.144;8.176;2023-11-21T05:44:58;12.43;;;7.20;;
17441;SDS011;8838;50.144;8.176;2023-11-21T05:47:34;12.87;;;8.13;;
17441;SDS011;8838;50.144;8.176;2023-11-21T05:50:04;9.47;;;6.63;;
17441;SDS011;8838;50.144;8.176;2023-11-21T05:52:34;10.53;;;6.70;;
17441;SDS011;8838;50.144;8.176;2023-11-21T05:55:01;8.67;;;6.73;;
17441;SDS011;8838;50.144;8.176;2023-11-21T05:57:29;8.10;;;5.93;;
17441;SDS011;8838;50.144;8.176;2023-11-21T05:59:56;9.30;;;6.33;;
17441;SDS011;8838;50.144;8.176;2023-11-21T06:02:23;9.83;;;6.83;;
17441;SDS011;8838;50.144;8.176;2023-11-21T06:04:50;8.98;;;6.85;;
17441;SDS011;8838;50.144;8.176;2023-11-21T06:07:19;9.50;;;5.80;;
17441;SDS011;8838;50.144;8.176;2023-11-21T06:09:45;9.17;;;6.17;;
17441;SDS011;8838;50.144;8.176;2023-11-21T06:12:15;8.80;;;6.30;;
17441;SDS011;8838;50.144;8.176;2023-11-21T06:14:42;8.53;;;6.10;;
17441;SDS011;8838;50.144;8.176;2023-11-21T06:17:09;9.73;;;6.10;;
17441;SDS011;8838;50.144;8.176;2023-11-21T06:19:36;10.97;;;6.93;;
17441;SDS011;8838;50.144;8.176;2023-11-21T06:22:03;12.10;;;8.80;;
17441;SDS011;8838;50.144;8.176;2023-11-21T06:24:31;10.63;;;7.50;;
17441;SDS011;8838;50.144;8.176;2023-11-21T06:26:58;9.10;;;7.27;;
17441;SDS011;8838;50.144;8.176;2023-11-21T06:29:25;10.90;;;8.60;;
17441;SDS011;8838;50.144;8.176;2023-11-21T06:31:51;11.47;;;8.47;;
17441;SDS011;8838;50.144;8.176;2023-11-21T06:34:20;11.17;;;8.57;;
17441;SDS011;8838;50.144;8.176;2023-11-21T06:36:47;11.63;;;7.63;;
17441;SDS011;8838;50.144;8.176;2023-11-21T06:39:13;10.57;;;6.57;;
17441;SDS011;8838;50.144;8.176;2023-11-21T06:41:43;12.30;;;7.40;;
17441;SDS011;8838;50.144;8.176;2023-11-21T06:44:10;11.60;;;8.33;;
17441;SDS011;8838;50.144;8.176;2023-11-21T06:46:37;9.63;;;7.90;;
17441;SDS011;8838;50.144;8.176;2023-11-21T06:49:07;9.67;;;8.00;;
17441;SDS011;8838;50.144;8.176;2023-11-21T06:51:34;12.27;;;8.23;;
17441;SDS011;8838;50.144;8.176;2023-11-21T06:54:01;10.90;;;7.60;;
17441;SDS011;8838;50.144;8.176;2023-11-21T06:56:27;8.37;;;7.33;;
17441;SDS011;8838;50.144;8.176;2023-11-21T06:58:55;10.47;;;7.90;;
17441;SDS011;8838;50.144;8.176;2023-11-21T07:01:22;12.23;;;7.93;;
17441;SDS011;8838;50.144;8.176;2023-11-21T07:03:49;11.60;;;8.43;;
17441;SDS011;8838;50.144;8.176;2023-11-21T07:06:16;12.40;;;8.40;;
17441;SDS011;8838;50.144;8.176;2023-11-21T07:08:43;8.63;;;7.30;;
17441;SDS011;8838;50.144;8.176;2023-11-21T07:11:10;12.60;;;7.50;;
17441;SDS011;8838;50.144;8.176;2023-11-21T07:13:37;11.23;;;7.53;;
17441;SDS011;8838;50.144;8.176;2023-11-21T07:16:05;8.07;;;6.87;;
17441;SDS011;8838;50.144;8.176;2023-11-21T07:18:32;11.57;;;7.03;;
17441;SDS011;8838;50.144;8.176;2023-11-21T07:20:59;9.13;;;6.63;;
17441;SDS011;8838;50.144;8.176;2023-11-21T07:23:27;12.00;;;6.73;;
17441;SDS011;8838;50.144;8.176;2023-11-21T07:25:54;11.03;;;7.60;;
17441;SDS011;8838;50.144;8.176;2023-11-21T07:28:20;12.13;;;7.53;;
17441;SDS011;8838;50.144;8.176;2023-11-21T07:30:47;11.60;;;8.43;;
17441;SDS011;8838;50.144;8.176;2023-11-21T07:33:15;12.27;;;8.70;;
17441;SDS011;8838;50.144;8.176;2023-11-21T07:35:42;11.40;;;8.90;;
17441;SDS011;8838;50.144;8.176;2023-11-21T07:38:09;14.47;;;8.80;;
17441;SDS011;8838;50.144;8.176;2023-11-21T07:40:36;10.93;;;7.40;;
17441;SDS011;8838;50.144;8.176;2023-11-21T07:43:02;10.90;;;8.13;;
17441;SDS011;8838;50.144;8.176;2023-11-21T07:45:30;12.07;;;8.53;;
17441;SDS011;8838;50.144;8.176;2023-11-21T07:47:58;13.27;;;7.43;;
17441;SDS011;8838;50.144;8.176;2023-11-21T07:50:27;11.17;;;7.33;;
17441;SDS011;8838;50.144;8.176;2023-11-21T07:52:53;13.37;;;8.13;;
17441;SDS011;8838;50.144;8.176;2023-11-21T07:55:20;14.37;;;8.63;;
17441;SDS011;8838;50.144;8.176;2023-11-21T07:57:47;12.67;;;8.70;;
17441;SDS011;8838;50.144;8.176;2023-11-21T08:00:14;11.17;;;7.90;;
17441;SDS011;8838;50.144;8.176;2023-11-21T08:02:41;11.37;;;6.70;;
17441;SDS011;8838;50.144;8.176;2023-11-21T08:05:11;8.60;;;5.43;;
17441;SDS011;8838;50.144;8.176;2023-11-21T08:07:39;9.97;;;5.97;;
17441;SDS011;8838;50.144;8.176;2023-11-21T08:10:07;12.37;;;6.40;;
17441;SDS011;8838;50.144;8.176;2023-11-21T08:12:36;9.30;;;5.90;;
17441;SDS011;8838;50.144;8.176;2023-11-21T08:15:04;10.47;;;5.40;;
17441;SDS011;8838;50.144;8.176;2023-11-21T08:17:32;9.37;;;6.50;;
17441;SDS011;8838;50.144;8.176;2023-11-21T08:20:00;12.83;;;5.47;;
17441;SDS011;8838;50.144;8.176;2023-11-21T08:22:28;11.03;;;5.43;;
17441;SDS011;8838;50.144;8.176;2023-11-21T08:24:57;13.73;;;5.87;;
17441;SDS011;8838;50.144;8.176;2023-11-21T08:27:23;9.07;;;5.60;;
17441;SDS011;8838;50.144;8.176;2023-11-21T08:29:50;12.30;;;5.23;;
17441;SDS011;8838;50.144;8.176;2023-11-21T08:32:17;8.07;;;5.47;;
17441;SDS011;8838;50.144;8.176;2023-11-21T08:34:44;10.10;;;5.13;;
17441;SDS011;8838;50.144;8.176;2023-11-21T08:37:14;8.17;;;5.27;;
17441;SDS011;8838;50.144;8.176;2023-11-21T08:39:41;8.10;;;4.80;;
17441;SDS011;8838;50.144;8.176;2023-11-21T08:42:10;6.03;;;4.30;;
17441;SDS011;8838;50.144;8.176;2023-11-21T08:44:37;8.67;;;4.57;;
17441;SDS011;8838;50.144;8.176;2023-11-21T08:47:05;5.57;;;4.27;;
17441;SDS011;8838;50.144;8.176;2023-11-21T08:49:32;9.80;;;4.50;;
17441;SDS011;8838;50.144;8.176;2023-11-21T08:51:59;12.13;;;4.43;;
17441;SDS011;8838;50.144;8.176;2023-11-21T08:54:26;9.57;;;5.10;;
17441;SDS011;8838;50.144;8.176;2023-11-21T08:56:52;9.77;;;5.40;;
17441;SDS011;8838;50.144;8.176;2023-11-21T08:59:21;13.93;;;6.80;;
17441;SDS011;8838;50.144;8.176;2023-11-21T09:01:49;11.17;;;5.70;;
17441;SDS011;8838;50.144;8.176;2023-11-21T09:04:15;9.30;;;5.17;;
17441;SDS011;8838;50.144;8.176;2023-11-21T09:06:42;10.23;;;5.00;;
17441;SDS011;8838;50.144;8.176;2023-11-21T09:09:10;8.40;;;4.47;;
17441;SDS011;8838;50.144;8.176;2023-11-21T09:11:39;9.47;;;4.57;;
17441;SDS011;8838;50.144;8.176;2023-11-21T09:14:05;9.43;;;5.23;;
17441;SDS011;8838;50.144;8.176;2023-11-21T09:16:35;9.30;;;4.37;;
17441;SDS011;8838;50.144;8.176;2023-11-21T09:19:02;8.85;;;4.35;;
17441;SDS011;8838;50.144;8.176;2023-11-21T09:21:30;8.65;;;4.60;;
17441;SDS011;8838;50.144;8.176;2023-11-21T09:23:58;8.90;;;4.25;;
17441;SDS011;8838;50.144;8.176;2023-11-21T09:26:25;6.82;;;4.20;;
17441;SDS011;8838;50.144;8.176;2023-11-21T09:28:51;7.97;;;4.38;;
17441;SDS011;8838;50.144;8.176;2023-11-21T09:31:19;9.30;;;4.20;;
17441;SDS011;8838;50.144;8.176;2023-11-21T09:33:49;8.05;;;4.05;;
17441;SDS011;8838;50.144;8.176;2023-11-21T09:36:16;9.27;;;3.70;;
17441;SDS011;8838;50.144;8.176;2023-11-21T09:38:43;7.70;;;3.70;;
17441;SDS011;8838;50.144;8.176;2023-11-21T09:41:11;14.32;;;4.60;;
17441;SDS011;8838;50.144;8.176;2023-11-21T09:43:44;7.10;;;3.40;;
17441;SDS011;8838;50.144;8.176;2023-11-21T09:46:13;7.22;;;3.53;;
17441;SDS011;8838;50.144;8.176;2023-11-21T09:48:46;6.35;;;3.53;;
17441;SDS011;8838;50.144;8.176;2023-11-21T09:51:16;8.75;;;3.65;;
17441;SDS011;8838;50.144;8.176;2023-11-21T09:53:46;9.07;;;3.65;;
17441;SDS011;8838;50.144;8.176;2023-11-21T09:56:17;12.35;;;3.78;;
17441;SDS011;8838;50.144;8.176;2023-11-21T09:58:50;8.75;;;4.15;;
17441;SDS011;8838;50.144;8.176;2023-11-21T10:01:18;9.90;;;4.45;;
17441;SDS011;8838;50.144;8.176;2023-11-21T10:03:46;7.55;;;3.50;;
17441;SDS011;8838;50.144;8.176;2023-11-21T10:06:15;7.72;;;3.40;;
17441;SDS011;8838;50.144;8.176;2023-11-21T10:08:46;9.93;;;3.28;;
17441;SDS011;8838;50.144;8.176;2023-11-21T10:11:15;9.10;;;3.85;;
17441;SDS011;8838;50.144;8.176;2023-11-21T10:13:46;10.10;;;4.07;;
17441;SDS011;8838;50.144;8.176;2023-11-21T10:16:15;8.88;;;3.83;;
17441;SDS011;8838;50.144;8.176;2023-11-21T10:18:46;9.90;;;3.72;;
17441;SDS011;8838;50.144;8.176;2023-11-21T10:21:16;8.02;;;4.28;;
17441;SDS011;8838;50.144;8.176;2023-11-21T10:23:47;7.05;;;3.30;;
17441;SDS011;8838;50.144;8.176;2023-11-21T10:26:19;10.57;;;3.83;;
17441;SDS011;8838;50.144;8.176;2023-11-21T10:28:55;10.93;;;3.88;;
17441;SDS011;8838;50.144;8.176;2023-11-21T10:31:22;7.43;;;3.42;;
17441;SDS011;8838;50.144;8.176;2023-11-21T10:33:50;7.88;;;3.47;;
17441;SDS011;8838;50.144;8.176;2023-11-21T10:36:26;9.97;;;3.43;;
17441;SDS011;8838;50.144;8.176;2023-11-21T10:38:53;10.43;;;3.50;;
17441;SDS011;8838;50.144;8.176;2023-11-21T10:41:22;7.40;;;3.75;;
17441;SDS011;8838;50.144;8.176;2023-11-21T10:43:52;6.35;;;2.70;;
17441;SDS011;8838;50.144;8.176;2023-11-21T10:46:19;5.60;;;3.28;;
17441;SDS011;8838;50.144;8.176;2023-11-21T10:48:51;6.00;;;3.53;;
17441;SDS011;8838;50.144;8.176;2023-11-21T10:51:20;6.88;;;3.28;;
17441;SDS011;8838;50.144;8.176;2023-11-21T10:53:48;9.73;;;3.58;;
17441;SDS011;8838;50.144;8.176;2023-11-21T10:56:16;7.82;;;3.40;;
17441;SDS011;8838;50.144;8.176;2023-11-21T10:58:46;11.25;;;3.20;;
17441;SDS011;8838;50.144;8.176;2023-11-21T11:01:16;8.25;;;3.33;;
17441;SDS011;8838;50.144;8.176;2023-11-21T11:03:46;5.88;;;3.42;;
17441;SDS011;8838;50.144;8.176;2023-11-21T11:06:13;10.07;;;3.40;;
17441;SDS011;8838;50.144;8.176;2023-11-21T11:08:41;7.07;;;3.33;;
17441;SDS011;8838;50.144;8.176;2023-11-21T11:11:09;6.57;;;3.08;;
17441;SDS011;8838;50.144;8.176;2023-11-21T11:13:37;9.45;;;3.33;;
17441;SDS011;8838;50.144;8.176;2023-11-21T11:16:05;9.13;;;3.72;;
17441;SDS011;8838;50.144;8.176;2023-11-21T11:18:35;5.80;;;3.50;;
17441;SDS011;8838;50.144;8.176;2023-11-21T11:21:06;9.15;;;3.70;;
17441;SDS011;8838;50.144;8.176;2023-11-21T11:23:45;7.53;;;3.47;;
17441;SDS011;8838;50.144;8.176;2023-11-21T11:26:24;9.48;;;3.72;;
17441;SDS011;8838;50.144;8.176;2023-11-21T11:29:01;7.55;;;3.50;;
17441;SDS011;8838;50.144;8.176;2023-11-21T11:31:37;8.07;;;3.22;;
17441;SDS011;8838;50.144;8.176;2023-11-21T11:34:12;8.65;;;3.70;;
17441;SDS011;8838;50.144;8.176;2023-11-21T11:36:48;8.88;;;3.17;;
17441;SDS011;8838;50.144;8.176;2023-11-21T11:39:26;9.18;;;3.90;;
17441;SDS011;8838;50.144;8.176;2023-11-21T11:41:55;6.90;;;3.10;;
17441;SDS011;8838;50.144;8.176;2023-11-21T11:47:16;7.88;;;3.35;;
17441;SDS011;8838;50.144;8.176;2023-11-21T11:49:59;7.28;;;3.22;;
17441;SDS011;8838;50.144;8.176;2023-11-21T11:52:32;7.70;;;3.33;;
17441;SDS011;8838;50.144;8.176;2023-11-21T11:55:05;6.13;;;3.25;;
17441;SDS011;8838;50.144;8.176;2023-11-21T11:57:36;5.70;;;3.20;;
17441;SDS011;8838;50.144;8.176;2023-11-21T12:00:08;7.57;;;3.47;;
17441;SDS011;8838;50.144;8.176;2023-11-21T12:02:37;5.55;;;3.30;;
17441;SDS011;8838;50.144;8.176;2023-11-21T12:05:08;7.45;;;3.30;;
17441;SDS011;8838;50.144;8.176;2023-11-21T12:07:42;6.95;;;3.45;;
17441;SDS011;8838;50.144;8.176;2023-11-21T12:10:16;6.00;;;3.67;;
17441;SDS011;8838;50.144;8.176;2023-11-21T12:12:49;9.13;;;5.05;;
17441;SDS011;8838;50.144;8.176;2023-11-21T12:15:18;7.88;;;4.20;;
17441;SDS011;8838;50.144;8.176;2023-11-21T12:17:46;5.85;;;3.95;;
17441;SDS011;8838;50.144;8.176;2023-11-21T12:20:14;8.20;;;4.60;;
17441;SDS011;8838;50.144;8.176;2023-11-21T12:22:44;8.02;;;4.55;;
17441;SDS011;8838;50.144;8.176;2023-11-21T12:25:14;10.52;;;5.75;;
17441;SDS011;8838;50.144;8.176;2023-11-21T12:27:43;9.30;;;5.38;;
17441;SDS011;8838;50.144;8.176;2023-11-21T12:30:14;7.90;;;5.07;;
17441;SDS011;8838;50.144;8.176;2023-11-21T12:32:42;12.25;;;6.32;;
17441;SDS011;8838;50.144;8.176;2023-11-21T12:35:11;10.43;;;5.70;;
17441;SDS011;8838;50.144;8.176;2023-11-21T12:37:38;7.63;;;5.32;;
17441;SDS011;8838;50.144;8.176;2023-11-21T12:40:08;9.68;;;5.38;;
17441;SDS011;8838;50.144;8.176;2023-11-21T12:42:37;7.22;;;5.05;;
17441;SDS011;8838;50.144;8.176;2023-11-21T12:45:10;12.75;;;5.95;;
17441;SDS011;8838;50.144;8.176;2023-11-21T12:47:45;8.98;;;5.70;;
17441;SDS011;8838;50.144;8.176;2023-11-21T12:50:13;11.13;;;7.10;;
17441;SDS011;8838;50.144;8.176;2023-11-21T12:52:41;12.98;;;7.22;;
17441;SDS011;8838;50.144;8.176;2023-11-21T12:55:12;12.60;;;6.80;;
17441;SDS011;8838;50.144;8.176;2023-11-21T12:57:41;11.80;;;7.57;;
17441;SDS011;8838;50.144;8.176;2023-11-21T13:00:13;13.90;;;7.63;;
17441;SDS011;8838;50.144;8.176;2023-11-21T13:02:52;15.48;;;8.15;;
17441;SDS011;8838;50.144;8.176;2023-11-21T13:05:28;13.25;;;7.57;;
17441;SDS011;8838;50.144;8.176;2023-11-21T13:07:56;15.65;;;8.60;;
17441;SDS011;8838;50.144;8.176;2023-11-21T13:10:27;17.55;;;7.80;;
17441;SDS011;8838;50.144;8.176;2023-11-21T13:12:56;14.95;;;8.20;;
17441;SDS011;8838;50.144;8.176;2023-11-21T13:15:26;15.68;;;7.88;;
17441;SDS011;8838;50.144;8.176;2023-11-21T13:17:56;16.80;;;8.98;;
17441;SDS011;8838;50.144;8.176;2023-11-21T13:20:23;15.07;;;8.27;;
17441;SDS011;8838;50.144;8.176;2023-11-21T13:22:50;14.17;;;8.07;;
17441;SDS011;8838;50.144;8.176;2023-11-21T13:25:21;19.07;;;8.70;;
17441;SDS011;8838;50.144;8.176;2023-11-21T13:27:48;16.20;;;7.28;;
17441;SDS011;8838;50.144;8.176;2023-11-21T13:30:16;16.67;;;7.70;;
17441;SDS011;8838;50.144;8.176;2023-11-21T13:32:47;15.15;;;8.02;;
17441;SDS011;8838;50.144;8.176;2023-11-21T13:35:16;15.77;;;7.85;;
17441;SDS011;8838;50.144;8.176;2023-11-21T13:37:49;14.27;;;6.88;;
17441;SDS011;8838;50.144;8.176;2023-11-21T13:40:20;13.02;;;7.22;;
17441;SDS011;8838;50.144;8.176;2023-11-21T13:42:50;16.88;;;7.88;;
17441;SDS011;8838;50.144;8.176;2023-11-21T13:45:20;13.57;;;7.25;;
17441;SDS011;8838;50.144;8.176;2023-11-21T13:47:49;11.88;;;6.65;;
17441;SDS011;8838;50.144;8.176;2023-11-21T13:50:22;12.63;;;6.88;;
17441;SDS011;8838;50.144;8.176;2023-11-21T13:52:54;14.63;;;6.70;;
17441;SDS011;8838;50.144;8.176;2023-11-21T13:55:21;21.63;;;12.32;;
17441;SDS011;8838;50.144;8.176;2023-11-21T13:57:50;13.10;;;6.72;;
17441;SDS011;8838;50.144;8.176;2023-11-21T14:00:17;13.00;;;6.03;;
17441;SDS011;8838;50.144;8.176;2023-11-21T14:03:10;12.60;;;5.82;;
17441;SDS011;8838;50.144;8.176;2023-11-21T14:05:45;13.88;;;6.80;;
17441;SDS011;8838;50.144;8.176;2023-11-21T14:08:16;11.32;;;5.93;;
17441;SDS011;8838;50.144;8.176;2023-11-21T14:10:45;10.63;;;6.20;;
17441;SDS011;8838;50.144;8.176;2023-11-21T14:13:15;17.85;;;6.68;;
17441;SDS011;8838;50.144;8.176;2023-11-21T14:15:42;13.68;;;6.40;;
17441;SDS011;8838;50.144;8.176;2023-11-21T14:18:13;14.32;;;7.03;;
17441;SDS011;8838;50.144;8.176;2023-11-21T14:20:42;14.13;;;7.10;;
17441;SDS011;8838;50.144;8.176;2023-11-21T14:23:09;13.07;;;6.90;;
17441;SDS011;8838;50.144;8.176;2023-11-21T14:25:37;9.52;;;5.88;;
17441;SDS011;8838;50.144;8.176;2023-11-21T14:28:04;11.85;;;6.30;;
17441;SDS011;8838;50.144;8.176;2023-11-21T14:30:32;11.40;;;7.07;;
17441;SDS011;8838;50.144;8.176;2023-11-21T14:33:01;11.60;;;6.57;;
17441;SDS011;8838;50.144;8.176;2023-11-21T14:35:29;10.27;;;6.35;;
17441;SDS011;8838;50.144;8.176;2023-11-21T14:37:57;12.90;;;7.05;;
17441;SDS011;8838;50.144;8.176;2023-11-21T14:40:25;15.85;;;7.57;;
17441;SDS011;8838;50.144;8.176;2023-11-21T14:42:58;12.30;;;7.78;;
17441;SDS011;8838;50.144;8.176;2023-11-21T14:45:25;16.80;;;8.10;;
17441;SDS011;8838;50.144;8.176;2023-11-21T14:47:53;21.25;;;8.98;;
17441;SDS011;8838;50.144;8.176;2023-11-21T14:50:32;15.70;;;8.88;;
17441;SDS011;8838;50.144;8.176;2023-11-21T14:53:11;14.45;;;8.30;;
17441;SDS011;8838;50.144;8.176;2023-11-21T14:55:38;17.90;;;8.07;;
17441;SDS011;8838;50.144;8.176;2023-11-21T14:58:19;16.60;;;9.27;;
17441;SDS011;8838;50.144;8.176;2023-11-21T15:00:51;15.00;;;8.10;;
17441;SDS011;8838;50.144;8.176;2023-11-21T15:03:23;15.82;;;8.95;;
17441;SDS011;8838;50.144;8.176;2023-11-21T15:06:09;17.95;;;10.25;;